createdAt,value
2024-04-18T00:06:46.981Z,1015.6
2024-04-18T00:21:43.219Z,1015.7
2024-04-18T00:36:39.754Z,1015.7
2024-04-18T00:51:35.127Z,1015.7
2024-04-18T01:06:31.196Z,1015.8
2024-04-18T01:21:27.125Z,1015.8
2024-04-18T01:36:23.303Z,1015.9
2024-04-18T01:51:19.594Z,1016
2024-04-18T02:06:16.457Z,1016.1
2024-04-18T02:21:12.689Z,1016.2
2024-04-18T02:36:08.833Z,1016.3
2024-04-18T02:51:05.278Z,1016.2
2024-04-18T03:06:01.083Z,1016.4
2024-04-18T03:20:57.570Z,1016.5
2024-04-18T03:35:53.647Z,1016.6
2024-04-18T03:50:49.978Z,1016.7
2024-04-18T04:05:46.239Z,1016.8
2024-04-18T04:20:42.704Z,1017.1
2024-04-18T04:35:39.091Z,1017.3
2024-04-18T04:50:35.458Z,1017.4
2024-04-18T05:05:31.901Z,1017.7
2024-04-18T05:20:28.161Z,1017.8
2024-04-18T05:35:24.380Z,1018
2024-04-18T05:50:20.921Z,1018.2
2024-04-18T06:05:17.325Z,1018.5
2024-04-18T06:20:13.689Z,1018.7
2024-04-18T06:35:10.193Z,1018.8
2024-04-18T06:50:06.574Z,1019
2024-04-18T07:05:03.398Z,1019.1
2024-04-18T07:19:59.595Z,1019.4
2024-04-18T07:34:55.757Z,1019.5
2024-04-18T07:49:52.407Z,1019.7
2024-04-18T08:04:52.677Z,1019.7
2024-04-18T08:19:46.166Z,1019.9
2024-04-18T08:34:44.419Z,1020
2024-04-18T08:49:40.033Z,1020
2024-04-18T09:04:36.612Z,1020.1
2024-04-18T09:19:32.814Z,1020.2
2024-04-18T09:34:29.066Z,1020.1
2024-04-18T09:49:26.157Z,1020.3
2024-04-18T10:04:21.865Z,1020.5
2024-04-18T10:19:17.984Z,1020.6
2024-04-18T10:34:14.382Z,1020.6
2024-04-18T10:49:10.881Z,1020.6
2024-04-18T11:04:07.559Z,1020.6
2024-04-18T11:19:04.291Z,1020.6
2024-04-18T11:34:00.987Z,1020.5
2024-04-18T12:03:54.490Z,1020.6
2024-04-18T12:18:49.747Z,1020.7
2024-04-18T12:33:45.665Z,1020.8
2024-04-18T12:48:43.012Z,1020.9
2024-04-18T13:03:38.873Z,1020.8
2024-04-18T13:18:35.725Z,1020.8
2024-04-18T13:33:32.191Z,1020.9
2024-04-18T13:48:28.790Z,1020.8
2024-04-18T14:03:25.574Z,1020.6
2024-04-18T14:18:21.099Z,1020.5
2024-04-18T14:33:17.527Z,1020.4
2024-04-18T14:48:13.750Z,1020.3
2024-04-18T15:03:09.953Z,1020.5
2024-04-18T15:18:05.824Z,1020.3
2024-04-18T15:33:02.113Z,1020.3
2024-04-18T15:47:58.428Z,1020.4
2024-04-18T16:02:55.420Z,1020.5
2024-04-18T16:17:49.823Z,1020.6
2024-04-18T16:32:45.690Z,1020.4
2024-04-18T16:47:42.595Z,1020.6
2024-04-18T17:02:38.430Z,1020.5
2024-04-18T17:17:33.993Z,1020.6
2024-04-18T17:32:30.446Z,1020.6
2024-04-18T17:47:26.088Z,1020.7
2024-04-18T18:02:21.709Z,1020.8
2024-04-18T18:17:17.302Z,1020.7
2024-04-18T18:32:13.442Z,1020.8
2024-04-18T18:47:09.629Z,1020.8
2024-04-18T19:02:05.755Z,1020.8
2024-04-18T19:17:02.180Z,1020.6
2024-04-18T19:31:57.973Z,1020.6
2024-04-18T19:46:53.844Z,1020.6
2024-04-18T20:01:49.678Z,1020.6
2024-04-18T20:16:45.953Z,1020.6
2024-04-18T20:31:42.282Z,1020.5
2024-04-18T20:46:38.124Z,1020.5
2024-04-18T21:01:33.876Z,1020.5
2024-04-18T21:16:29.879Z,1020.4
2024-04-18T21:31:25.793Z,1020.2
2024-04-18T21:46:22.217Z,1020.2
2024-04-18T22:01:18.316Z,1020
2024-04-18T22:16:14.219Z,1019.9
2024-04-18T22:31:10.095Z,1019.9
2024-04-18T22:46:05.901Z,1019.8
2024-04-18T23:01:02.501Z,1019.6
2024-04-18T23:15:57.931Z,1019.5
2024-04-18T23:30:54.379Z,1019.2
2024-04-18T23:45:50.382Z,1019.1
